createdAt,value
2019-03-15T00:00:07.290Z,990.79
2019-03-15T00:00:47.838Z,990.9
2019-03-15T00:01:28.391Z,990.85
2019-03-15T00:02:08.954Z,990.87
2019-03-15T00:02:49.521Z,990.81
2019-03-15T00:03:30.128Z,990.88
2019-03-15T00:04:10.692Z,990.92
2019-03-15T00:04:51.250Z,990.93
2019-03-15T00:05:31.818Z,990.97
2019-03-15T00:06:12.429Z,990.91
2019-03-15T00:06:52.993Z,990.98
2019-03-15T00:07:33.583Z,990.95
2019-03-15T00:08:14.133Z,990.9
2019-03-15T00:08:54.683Z,991.03
2019-03-15T00:09:35.294Z,991.02
2019-03-15T00:10:15.848Z,991
2019-03-15T00:10:56.432Z,990.99
2019-03-15T00:11:36.986Z,990.95
2019-03-15T00:12:17.550Z,991.01
2019-03-15T00:12:58.102Z,991.02
2019-03-15T00:13:38.712Z,991.09
2019-03-15T00:14:19.219Z,991.1
2019-03-15T00:14:59.781Z,991.08
2019-03-15T00:15:40.321Z,990.99
2019-03-15T00:16:20.882Z,991.09
2019-03-15T00:17:01.466Z,991.08
2019-03-15T00:17:42.025Z,991.04
2019-03-15T00:18:22.587Z,991.04
2019-03-15T00:19:03.152Z,990.99
2019-03-15T00:19:43.716Z,991.14
2019-03-15T00:20:24.288Z,991.06
2019-03-15T00:21:04.860Z,991.07
2019-03-15T00:21:45.457Z,991.17
2019-03-15T00:22:26.004Z,991.17
2019-03-15T00:23:06.551Z,991.09
2019-03-15T00:23:47.113Z,991.11
2019-03-15T00:24:27.698Z,991.15
2019-03-15T00:25:08.255Z,991.17
2019-03-15T00:25:48.829Z,991.19
2019-03-15T00:26:29.416Z,991.24
2019-03-15T00:27:09.999Z,991.25
2019-03-15T00:27:50.552Z,991.22
2019-03-15T00:28:31.128Z,991.25
2019-03-15T00:29:11.707Z,991.23
2019-03-15T00:29:52.265Z,991.31
2019-03-15T00:30:32.835Z,991.21
2019-03-15T00:31:13.412Z,991.28
2019-03-15T00:31:53.983Z,991.3
2019-03-15T00:32:34.565Z,991.29
2019-03-15T00:33:15.136Z,991.28
2019-03-15T00:33:55.708Z,991.32
2019-03-15T00:34:36.268Z,991.32
2019-03-15T00:35:16.832Z,991.29
2019-03-15T00:35:57.411Z,991.36
2019-03-15T00:36:37.974Z,991.36
2019-03-15T00:37:18.534Z,991.36
2019-03-15T00:37:59.085Z,991.37
2019-03-15T00:38:39.634Z,991.28
2019-03-15T00:39:20.180Z,991.3
2019-03-15T00:40:00.737Z,991.37
2019-03-15T00:40:41.373Z,991.36
2019-03-15T00:41:21.913Z,991.42
2019-03-15T00:42:02.470Z,991.38
2019-03-15T00:42:43.017Z,991.39
2019-03-15T00:43:23.589Z,991.44
2019-03-15T00:44:04.198Z,991.44
2019-03-15T00:44:44.738Z,991.45
2019-03-15T00:45:25.299Z,991.47
2019-03-15T00:46:05.849Z,991.5
2019-03-15T00:46:46.413Z,991.46
2019-03-15T00:47:26.971Z,991.52
2019-03-15T00:48:07.537Z,991.46
2019-03-15T00:48:48.096Z,991.45
2019-03-15T00:49:28.679Z,991.51
2019-03-15T00:50:09.233Z,991.56
2019-03-15T00:50:49.818Z,991.56
2019-03-15T00:51:30.381Z,991.54
2019-03-15T00:52:10.933Z,991.62
2019-03-15T00:52:51.506Z,991.58
2019-03-15T00:53:32.094Z,991.59
2019-03-15T00:54:12.671Z,991.56
2019-03-15T00:54:53.239Z,991.52
2019-03-15T00:55:33.790Z,991.52
2019-03-15T00:56:14.350Z,991.63
2019-03-15T00:56:54.915Z,991.57
2019-03-15T00:57:35.475Z,991.55
2019-03-15T00:58:16.019Z,991.57
2019-03-15T00:58:56.622Z,991.57
2019-03-15T00:59:37.198Z,991.61
2019-03-15T01:00:17.767Z,991.55
2019-03-15T01:00:58.337Z,991.6
2019-03-15T01:01:38.915Z,991.67
2019-03-15T01:02:19.494Z,991.57
2019-03-15T01:03:00.070Z,991.6
2019-03-15T01:03:40.627Z,991.68
2019-03-15T01:04:21.203Z,991.59
2019-03-15T01:05:01.802Z,991.66
2019-03-15T01:05:42.366Z,991.67
2019-03-15T01:06:22.932Z,991.63
2019-03-15T01:07:03.502Z,991.69
2019-03-15T01:07:44.055Z,991.73
2019-03-15T01:08:24.637Z,991.72
2019-03-15T01:09:05.214Z,991.7
2019-03-15T01:09:45.773Z,991.67
2019-03-15T01:10:26.337Z,991.64
2019-03-15T01:11:06.947Z,991.67
2019-03-15T01:11:47.438Z,991.7
2019-03-15T01:12:27.975Z,991.68
2019-03-15T01:13:08.549Z,991.7
2019-03-15T01:13:49.147Z,991.74
2019-03-15T01:14:29.721Z,991.79
2019-03-15T01:15:10.283Z,991.73
2019-03-15T01:15:50.900Z,991.69
2019-03-15T01:16:31.500Z,991.66
2019-03-15T01:17:12.080Z,991.68
2019-03-15T01:17:52.689Z,991.72
2019-03-15T01:18:33.241Z,991.63
2019-03-15T01:19:13.803Z,991.67
2019-03-15T01:19:54.367Z,991.7
2019-03-15T01:20:34.912Z,991.65
2019-03-15T01:21:15.491Z,991.66
2019-03-15T01:21:56.067Z,991.73
2019-03-15T01:22:36.619Z,991.67
2019-03-15T01:23:17.173Z,991.73
2019-03-15T01:23:57.746Z,991.72
2019-03-15T01:24:38.330Z,991.78
2019-03-15T01:25:18.887Z,991.68
2019-03-15T01:25:59.493Z,991.68
2019-03-15T01:26:40.062Z,991.75
2019-03-15T01:27:20.640Z,991.71
2019-03-15T01:28:01.196Z,991.76
2019-03-15T01:28:41.783Z,991.74
2019-03-15T01:29:22.344Z,991.72
2019-03-15T01:30:02.894Z,991.72
2019-03-15T01:30:43.462Z,991.8
2019-03-15T01:31:24.013Z,991.71
2019-03-15T01:32:04.579Z,991.79
2019-03-15T01:32:45.151Z,991.8
2019-03-15T01:33:25.720Z,991.86
2019-03-15T01:34:06.297Z,991.81
2019-03-15T01:34:46.850Z,991.82
2019-03-15T01:35:27.401Z,991.79
2019-03-15T01:36:07.970Z,991.87
2019-03-15T01:36:48.545Z,991.72
2019-03-15T01:37:29.104Z,991.71
2019-03-15T01:38:09.659Z,991.78
2019-03-15T01:38:50.232Z,991.75
2019-03-15T01:39:31.261Z,991.81
2019-03-15T01:40:11.840Z,991.77
2019-03-15T01:40:52.401Z,991.78
2019-03-15T01:41:32.986Z,991.82
2019-03-15T01:42:13.543Z,991.85
2019-03-15T01:42:54.100Z,991.8
2019-03-15T01:43:34.657Z,991.83
2019-03-15T01:44:15.209Z,991.82
2019-03-15T01:44:55.835Z,991.79
2019-03-15T01:45:36.370Z,991.86
2019-03-15T01:46:16.949Z,991.85
2019-03-15T01:46:57.499Z,991.86
2019-03-15T01:47:38.061Z,991.85
2019-03-15T01:48:18.603Z,991.85
2019-03-15T01:48:59.152Z,991.91
2019-03-15T01:49:39.723Z,991.87
2019-03-15T01:50:20.282Z,991.9
2019-03-15T01:51:00.829Z,991.85
2019-03-15T01:51:41.536Z,991.92
2019-03-15T01:52:22.686Z,991.91
2019-03-15T01:53:03.254Z,991.88
2019-03-15T01:53:43.807Z,991.89
2019-03-15T01:54:24.366Z,992
2019-03-15T01:55:04.931Z,991.97
2019-03-15T01:55:45.508Z,991.97
2019-03-15T01:56:26.094Z,991.96
2019-03-15T01:57:06.659Z,991.94
2019-03-15T01:57:47.231Z,991.99
2019-03-15T01:58:27.786Z,991.98
2019-03-15T01:59:08.334Z,991.93
2019-03-15T01:59:48.886Z,992.04
2019-03-15T02:00:29.476Z,991.98
2019-03-15T02:01:10.046Z,992
2019-03-15T02:01:50.602Z,991.99
2019-03-15T02:02:31.181Z,991.99
2019-03-15T02:03:11.732Z,991.97
2019-03-15T02:03:52.315Z,992.01
2019-03-15T02:04:32.907Z,992.02
2019-03-15T02:05:13.482Z,991.95
2019-03-15T02:05:54.038Z,991.93
2019-03-15T02:06:34.607Z,991.96
2019-03-15T02:07:15.171Z,991.95
2019-03-15T02:07:55.749Z,991.95
2019-03-15T02:08:36.279Z,991.98
2019-03-15T02:09:16.845Z,992
2019-03-15T02:09:57.397Z,991.95
2019-03-15T02:10:37.962Z,992.03
2019-03-15T02:11:18.533Z,991.94
2019-03-15T02:11:59.085Z,991.93
2019-03-15T02:12:39.647Z,992
2019-03-15T02:13:20.211Z,991.95
2019-03-15T02:14:01.679Z,991.85
2019-03-15T02:14:41.339Z,991.92
2019-03-15T02:15:21.916Z,991.9
2019-03-15T02:16:02.484Z,991.97
2019-03-15T02:16:43.062Z,991.91
2019-03-15T02:17:23.637Z,991.88
2019-03-15T02:18:04.204Z,991.87
2019-03-15T02:18:44.778Z,991.87
2019-03-15T02:19:25.336Z,991.87
2019-03-15T02:20:05.908Z,991.94
2019-03-15T02:20:46.507Z,991.94
2019-03-15T02:21:27.060Z,991.89
2019-03-15T02:22:08.418Z,991.97
2019-03-15T02:22:48.220Z,991.94
2019-03-15T02:23:28.779Z,991.94
2019-03-15T02:24:09.351Z,991.95
2019-03-15T02:24:49.929Z,991.92
2019-03-15T02:25:30.498Z,991.98
2019-03-15T02:26:11.054Z,991.95
2019-03-15T02:26:51.628Z,992.01
2019-03-15T02:27:32.203Z,991.96
2019-03-15T02:28:12.789Z,991.97
2019-03-15T02:28:53.357Z,992.01
2019-03-15T02:29:33.927Z,992.06
2019-03-15T02:30:14.479Z,992.02
2019-03-15T02:30:55.035Z,992.09
2019-03-15T02:31:35.590Z,992.09
2019-03-15T02:32:16.155Z,992.11
2019-03-15T02:32:56.717Z,992.05
2019-03-15T02:33:37.293Z,992.1
2019-03-15T02:34:17.864Z,992.01
2019-03-15T02:34:58.403Z,992.16
2019-03-15T02:35:38.978Z,992.07
2019-03-15T02:36:19.539Z,991.99
2019-03-15T02:37:00.097Z,992.04
2019-03-15T02:37:40.643Z,992.16
2019-03-15T02:38:21.217Z,992.11
2019-03-15T02:39:01.756Z,992.13
2019-03-15T02:39:42.332Z,992.13
2019-03-15T02:40:22.873Z,992.13
2019-03-15T02:41:04.903Z,992.11
2019-03-15T02:41:44.033Z,992.12
2019-03-15T02:42:26.021Z,992.12
2019-03-15T02:43:05.184Z,992.18
2019-03-15T02:43:45.970Z,992.2
2019-03-15T02:44:26.332Z,992.18
2019-03-15T02:45:06.897Z,992.15
2019-03-15T02:45:47.480Z,992.18
2019-03-15T02:46:28.133Z,992.16
2019-03-15T02:47:08.709Z,992.17
2019-03-15T02:47:49.269Z,992.26
2019-03-15T02:48:29.893Z,992.21
2019-03-15T02:49:10.436Z,992.14
2019-03-15T02:49:50.996Z,992.22
2019-03-15T02:50:31.558Z,992.1
2019-03-15T02:51:12.129Z,992.25
2019-03-15T02:51:52.696Z,992.27
2019-03-15T02:52:33.255Z,992.3
2019-03-15T02:53:13.817Z,992.25
2019-03-15T02:53:54.372Z,992.33
2019-03-15T02:54:34.950Z,992.33
2019-03-15T02:55:15.506Z,992.32
2019-03-15T02:55:56.049Z,992.32
2019-03-15T02:56:36.606Z,992.32
2019-03-15T02:57:17.186Z,992.36
2019-03-15T02:57:57.755Z,992.31
2019-03-15T02:58:38.317Z,992.37
2019-03-15T02:59:18.987Z,992.42
2019-03-15T02:59:59.512Z,992.47
2019-03-15T03:00:40.985Z,992.43
2019-03-15T03:01:20.623Z,992.35
2019-03-15T03:02:01.188Z,992.41
2019-03-15T03:02:41.783Z,992.42
2019-03-15T03:03:22.312Z,992.41
2019-03-15T03:04:02.869Z,992.41
2019-03-15T03:04:43.454Z,992.46
2019-03-15T03:05:24.008Z,992.36
2019-03-15T03:06:04.587Z,992.44
2019-03-15T03:06:45.184Z,992.45
2019-03-15T03:07:25.820Z,992.43
2019-03-15T03:08:06.373Z,992.45
2019-03-15T03:08:46.952Z,992.43
2019-03-15T03:09:27.531Z,992.42
2019-03-15T03:10:08.109Z,992.48
2019-03-15T03:10:48.713Z,992.46
2019-03-15T03:11:29.277Z,992.52
2019-03-15T03:12:09.847Z,992.52
2019-03-15T03:12:50.405Z,992.51
2019-03-15T03:13:30.955Z,992.46
2019-03-15T03:14:11.550Z,992.54
2019-03-15T03:14:52.130Z,992.55
2019-03-15T03:15:32.680Z,992.56
2019-03-15T03:16:13.237Z,992.61
2019-03-15T03:16:53.797Z,992.54
2019-03-15T03:17:34.382Z,992.46
2019-03-15T03:18:14.942Z,992.65
2019-03-15T03:18:55.567Z,992.53
2019-03-15T03:19:36.142Z,992.6
2019-03-15T03:20:16.729Z,992.65
2019-03-15T03:20:57.308Z,992.59
2019-03-15T03:21:37.863Z,992.5
2019-03-15T03:22:18.450Z,992.63
2019-03-15T03:22:59.001Z,992.6
2019-03-15T03:23:39.559Z,992.63
2019-03-15T03:24:20.139Z,992.61
2019-03-15T03:25:00.719Z,992.74
2019-03-15T03:25:41.273Z,992.69
2019-03-15T03:26:23.456Z,992.66
2019-03-15T03:27:04.048Z,992.8
2019-03-15T03:27:44.631Z,992.76
2019-03-15T03:28:25.212Z,992.74
2019-03-15T03:29:05.765Z,992.84
2019-03-15T03:29:46.864Z,992.72
2019-03-15T03:30:26.911Z,992.83
2019-03-15T03:31:07.533Z,992.82
2019-03-15T03:31:48.074Z,992.91
2019-03-15T03:32:28.631Z,992.95
2019-03-15T03:33:09.228Z,992.7
2019-03-15T03:33:49.792Z,992.84
2019-03-15T03:34:30.368Z,992.95
2019-03-15T03:35:11.111Z,992.93
2019-03-15T03:35:51.482Z,992.97
2019-03-15T03:36:32.053Z,992.97
2019-03-15T03:37:12.619Z,993.03
2019-03-15T03:37:53.209Z,993.01
2019-03-15T03:38:33.771Z,993.05
2019-03-15T03:39:14.338Z,993.01
2019-03-15T03:39:54.885Z,993.08
2019-03-15T03:40:35.437Z,993.08
2019-03-15T03:41:16.015Z,993.06
2019-03-15T03:41:56.578Z,993.04
2019-03-15T03:42:37.150Z,993.08
2019-03-15T03:43:17.727Z,993.04
2019-03-15T03:43:58.296Z,993.08
2019-03-15T03:44:38.876Z,993.06
2019-03-15T03:45:19.451Z,993.05
2019-03-15T03:46:00.015Z,993.02
2019-03-15T03:46:40.562Z,993.1
2019-03-15T03:47:21.137Z,993.12
2019-03-15T03:48:01.697Z,993.1
2019-03-15T03:48:42.305Z,993.16
2019-03-15T03:49:22.862Z,993.18
2019-03-15T03:50:03.415Z,993.14
2019-03-15T03:50:43.952Z,993.12
2019-03-15T03:51:24.534Z,993.11
2019-03-15T03:52:05.109Z,993.13
2019-03-15T03:52:45.649Z,993.17
2019-03-15T03:53:26.242Z,993.12
2019-03-15T03:54:06.806Z,993.09
2019-03-15T03:54:47.395Z,993.14
2019-03-15T03:55:27.943Z,993.1
2019-03-15T03:56:08.499Z,993.07
2019-03-15T03:56:49.065Z,993.12
2019-03-15T03:57:29.649Z,993.13
2019-03-15T03:58:10.206Z,993.16
2019-03-15T03:58:50.789Z,993.15
2019-03-15T03:59:31.344Z,993.2
2019-03-15T04:00:11.921Z,993.23
2019-03-15T04:00:52.536Z,993.18
2019-03-15T04:01:33.055Z,993.23
2019-03-15T04:02:13.626Z,993.22
2019-03-15T04:02:54.197Z,993.22
2019-03-15T04:03:34.801Z,993.15
2019-03-15T04:04:15.323Z,993.16
2019-03-15T04:04:55.917Z,993.23
2019-03-15T04:05:36.521Z,993.25
2019-03-15T04:06:17.105Z,993.21
2019-03-15T04:06:57.719Z,993.2
2019-03-15T04:07:38.281Z,993.21
2019-03-15T04:08:18.828Z,993.23
2019-03-15T04:08:59.538Z,993.21
2019-03-15T04:09:40.188Z,993.19
2019-03-15T04:10:20.524Z,993.23
2019-03-15T04:11:01.105Z,993.19
2019-03-15T04:11:54.171Z,993.23
2019-03-15T04:12:22.229Z,993.28
2019-03-15T04:13:02.784Z,993.25
2019-03-15T04:13:43.336Z,993.26
2019-03-15T04:14:23.904Z,993.34
2019-03-15T04:15:04.475Z,993.24
2019-03-15T04:15:45.050Z,993.31
2019-03-15T04:16:25.596Z,993.36
2019-03-15T04:17:06.150Z,993.34
2019-03-15T04:17:46.721Z,993.34
2019-03-15T04:18:27.291Z,993.31
2019-03-15T04:19:07.869Z,993.25
2019-03-15T04:19:48.433Z,993.33
2019-03-15T04:20:28.994Z,993.32
2019-03-15T04:21:09.536Z,993.35
2019-03-15T04:21:50.195Z,993.36
2019-03-15T04:22:30.755Z,993.37
2019-03-15T04:23:11.313Z,993.33
2019-03-15T04:23:51.882Z,993.4
2019-03-15T04:24:32.448Z,993.43
2019-03-15T04:25:13.007Z,993.45
2019-03-15T04:25:53.589Z,993.41
2019-03-15T04:26:34.162Z,993.5
2019-03-15T04:27:14.720Z,993.47
2019-03-15T04:27:55.279Z,993.4
2019-03-15T04:28:35.845Z,993.51
2019-03-15T04:29:16.406Z,993.5
2019-03-15T04:29:56.999Z,993.46
2019-03-15T04:30:37.571Z,993.51
2019-03-15T04:31:18.151Z,993.47
2019-03-15T04:31:58.717Z,993.52
2019-03-15T04:32:39.306Z,993.58
2019-03-15T04:33:19.901Z,993.58
2019-03-15T04:34:00.465Z,993.62
2019-03-15T04:34:41.021Z,993.6
2019-03-15T04:35:21.582Z,993.55
2019-03-15T04:36:02.153Z,993.64
2019-03-15T04:36:42.706Z,993.61
2019-03-15T04:37:23.283Z,993.69
2019-03-15T04:38:03.834Z,993.62
2019-03-15T04:38:44.406Z,993.64
2019-03-15T04:39:24.956Z,993.61
2019-03-15T04:40:05.647Z,993.63
2019-03-15T04:40:46.127Z,993.66
2019-03-15T04:41:26.648Z,993.64
2019-03-15T04:42:07.212Z,993.68
2019-03-15T04:42:47.770Z,993.64
2019-03-15T04:43:28.330Z,993.72
2019-03-15T04:44:08.923Z,993.71
2019-03-15T04:44:49.478Z,993.68
2019-03-15T04:45:30.161Z,993.7
2019-03-15T04:46:10.626Z,993.67
2019-03-15T04:46:51.203Z,993.58
2019-03-15T04:47:31.785Z,993.69
2019-03-15T04:48:12.331Z,993.69
2019-03-15T04:48:52.929Z,993.69
2019-03-15T04:49:33.496Z,993.69
2019-03-15T04:50:14.066Z,993.74
2019-03-15T04:50:54.616Z,993.7
2019-03-15T04:51:35.221Z,993.7
2019-03-15T04:52:15.784Z,993.81
2019-03-15T04:52:56.372Z,993.76
2019-03-15T04:53:36.935Z,993.77
2019-03-15T04:54:17.491Z,993.74
2019-03-15T04:54:58.057Z,993.77
2019-03-15T04:55:38.638Z,993.75
2019-03-15T04:56:19.245Z,993.73
2019-03-15T04:56:59.792Z,993.82
2019-03-15T04:57:40.363Z,993.83
2019-03-15T04:58:20.913Z,993.84
2019-03-15T04:59:01.528Z,993.86
2019-03-15T04:59:42.101Z,993.94
2019-03-15T05:00:22.654Z,993.89
2019-03-15T05:01:03.236Z,993.88
2019-03-15T05:01:43.790Z,993.92
2019-03-15T05:02:24.346Z,993.93
2019-03-15T05:03:04.913Z,993.89
2019-03-15T05:03:45.482Z,993.9
2019-03-15T05:04:26.045Z,993.94
2019-03-15T05:05:06.645Z,993.94
2019-03-15T05:05:47.208Z,994.04
2019-03-15T05:06:27.882Z,993.95
2019-03-15T05:07:08.366Z,993.96
2019-03-15T05:07:48.915Z,993.98
2019-03-15T05:08:29.468Z,994.01
2019-03-15T05:09:10.068Z,994.02
2019-03-15T05:09:50.632Z,994.04
2019-03-15T05:10:31.299Z,994.08
2019-03-15T05:11:11.755Z,994.12
2019-03-15T05:11:52.320Z,994.07
2019-03-15T05:12:32.911Z,994.1
2019-03-15T05:13:13.485Z,994.01
2019-03-15T05:13:54.064Z,994.05
2019-03-15T05:14:34.606Z,993.89
2019-03-15T05:15:15.178Z,994.05
2019-03-15T05:15:55.750Z,994.03
2019-03-15T05:16:36.301Z,993.97
2019-03-15T05:17:16.866Z,994
2019-03-15T05:17:57.453Z,994.09
2019-03-15T05:18:38.009Z,994.01
2019-03-15T05:19:18.577Z,994.15
2019-03-15T05:19:59.147Z,994.08
2019-03-15T05:20:39.719Z,994.28
2019-03-15T05:21:20.291Z,994.13
2019-03-15T05:22:00.848Z,994.2
2019-03-15T05:22:41.426Z,994.19
2019-03-15T05:23:22.025Z,994.13
2019-03-15T05:24:02.599Z,994.09
2019-03-15T05:24:43.210Z,994.09
2019-03-15T05:25:23.795Z,994.14
2019-03-15T05:26:04.355Z,994.2
2019-03-15T05:26:44.942Z,994.2
2019-03-15T05:27:25.528Z,994.21
2019-03-15T05:28:06.154Z,994.26
2019-03-15T05:28:46.696Z,994.29
2019-03-15T05:29:27.266Z,994.25
2019-03-15T05:30:07.829Z,994.24
2019-03-15T05:30:48.401Z,994.28
2019-03-15T05:31:28.987Z,994.21
2019-03-15T05:32:09.550Z,994.25
2019-03-15T05:32:50.145Z,994.21
2019-03-15T05:33:30.669Z,994.28
2019-03-15T05:34:11.233Z,994.33
2019-03-15T05:34:51.837Z,994.25
2019-03-15T05:35:32.405Z,994.25
2019-03-15T05:36:12.999Z,994.27
2019-03-15T05:36:53.546Z,994.25
2019-03-15T05:37:34.119Z,994.32
2019-03-15T05:38:14.691Z,994.31
2019-03-15T05:38:55.263Z,994.29
2019-03-15T05:39:35.851Z,994.27
2019-03-15T05:40:16.406Z,994.26
2019-03-15T05:40:56.973Z,994.3
2019-03-15T05:41:37.541Z,994.27
2019-03-15T05:42:18.115Z,994.23
2019-03-15T05:42:58.672Z,994.31
2019-03-15T05:43:39.226Z,994.2
2019-03-15T05:44:19.804Z,994.32
2019-03-15T05:45:00.436Z,994.37
2019-03-15T05:45:40.976Z,994.32
2019-03-15T05:46:21.543Z,994.37
2019-03-15T05:47:02.091Z,994.29
2019-03-15T05:47:42.650Z,994.36
2019-03-15T05:48:23.202Z,994.36
2019-03-15T05:49:03.776Z,994.29
2019-03-15T05:49:44.367Z,994.41
2019-03-15T05:50:24.939Z,994.36
2019-03-15T05:51:05.485Z,994.43
2019-03-15T05:51:46.037Z,994.46
2019-03-15T05:52:26.621Z,994.45
2019-03-15T05:53:07.193Z,994.43
2019-03-15T05:53:47.751Z,994.51
2019-03-15T05:54:28.313Z,994.44
2019-03-15T05:55:08.878Z,994.52
2019-03-15T05:55:49.432Z,994.58
2019-03-15T05:56:30.031Z,994.46
2019-03-15T05:57:10.548Z,994.55
2019-03-15T05:57:51.124Z,994.61
2019-03-15T05:58:31.793Z,994.58
2019-03-15T05:59:12.364Z,994.59
2019-03-15T05:59:53.093Z,994.61
2019-03-15T06:00:33.880Z,994.58
2019-03-15T06:01:14.447Z,994.58
2019-03-15T06:01:55.078Z,994.58
2019-03-15T06:02:35.657Z,994.58
2019-03-15T06:03:16.193Z,994.72
2019-03-15T06:03:56.754Z,994.62
2019-03-15T06:04:37.330Z,994.69
2019-03-15T06:05:17.876Z,994.77
2019-03-15T06:05:58.438Z,994.72
2019-03-15T06:06:39.017Z,994.73
2019-03-15T06:07:19.569Z,994.8
2019-03-15T06:08:00.136Z,994.73
2019-03-15T06:08:40.719Z,994.8
2019-03-15T06:09:21.280Z,994.76
2019-03-15T06:10:01.846Z,994.77
2019-03-15T06:10:42.388Z,994.73
2019-03-15T06:11:22.936Z,994.81
2019-03-15T06:12:03.527Z,994.88
2019-03-15T06:12:44.246Z,994.77
2019-03-15T06:13:24.830Z,994.85
2019-03-15T06:14:05.438Z,994.79
2019-03-15T06:14:46.983Z,994.85
2019-03-15T06:15:26.746Z,994.84
2019-03-15T06:16:07.284Z,994.89
2019-03-15T06:16:47.844Z,994.85
2019-03-15T06:17:28.436Z,994.88
2019-03-15T06:18:09.018Z,994.92
2019-03-15T06:18:49.603Z,994.86
2019-03-15T06:19:30.169Z,994.86
2019-03-15T06:20:10.753Z,994.86
2019-03-15T06:20:51.313Z,994.89
2019-03-15T06:21:31.883Z,994.88
2019-03-15T06:22:12.468Z,994.93
2019-03-15T06:22:53.012Z,994.88
2019-03-15T06:23:33.596Z,994.98
2019-03-15T06:24:14.158Z,994.89
2019-03-15T06:24:54.764Z,994.92
2019-03-15T06:25:35.315Z,994.94
2019-03-15T06:26:16.059Z,994.95
2019-03-15T06:26:56.450Z,994.91
2019-03-15T06:27:37.031Z,994.93
2019-03-15T06:28:17.598Z,995.02
2019-03-15T06:29:01.477Z,994.97
2019-03-15T06:29:38.998Z,994.97
2019-03-15T06:30:19.590Z,994.96
2019-03-15T06:31:00.139Z,994.96
2019-03-15T06:31:40.709Z,994.93
2019-03-15T06:32:21.269Z,994.97
2019-03-15T06:33:01.861Z,994.99
2019-03-15T06:33:42.418Z,994.96
2019-03-15T06:34:22.973Z,995.07
2019-03-15T06:35:03.631Z,994.97
2019-03-15T06:35:44.183Z,995.06
2019-03-15T06:36:24.989Z,995.07
2019-03-15T06:37:07.141Z,995.05
2019-03-15T06:37:47.796Z,995.04
2019-03-15T06:38:28.510Z,994.99
2019-03-15T06:39:09.088Z,995.09
2019-03-15T06:39:49.651Z,995.06
2019-03-15T06:40:30.242Z,995.06
2019-03-15T06:41:10.805Z,994.99
2019-03-15T06:41:51.393Z,994.99
2019-03-15T06:42:31.995Z,995.12
2019-03-15T06:43:13.337Z,994.96
2019-03-15T06:43:53.318Z,994.93
2019-03-15T06:44:33.897Z,994.99
2019-03-15T06:45:14.530Z,995.03
2019-03-15T06:45:55.279Z,995
2019-03-15T06:46:36.626Z,994.91
2019-03-15T06:47:16.618Z,995.1
2019-03-15T06:47:57.231Z,995.07
2019-03-15T06:48:39.044Z,995.02
2019-03-15T06:49:19.700Z,995.02
2019-03-15T06:50:00.327Z,995.1
2019-03-15T06:50:40.800Z,995.03
2019-03-15T06:51:21.424Z,995.11
2019-03-15T06:52:02.006Z,995.06
2019-03-15T06:52:42.568Z,995.02
2019-03-15T06:53:25.160Z,995.05
2019-03-15T06:54:11.125Z,995.08
2019-03-15T06:54:46.498Z,995.1
2019-03-15T06:55:27.084Z,995.16
2019-03-15T06:56:07.680Z,995.21
2019-03-15T06:56:48.254Z,995.15
2019-03-15T06:57:28.838Z,995.1
2019-03-15T06:58:09.401Z,995.16
2019-03-15T06:58:49.962Z,995.11
2019-03-15T06:59:30.580Z,995.19
2019-03-15T07:00:11.177Z,995.2
2019-03-15T07:00:54.451Z,995.22
2019-03-15T07:01:32.278Z,995.2
2019-03-15T07:02:12.857Z,995.25
2019-03-15T07:02:53.448Z,995.23
2019-03-15T07:03:34.061Z,995.2
2019-03-15T07:04:14.700Z,995.25
2019-03-15T07:04:55.225Z,995.25
2019-03-15T07:05:35.781Z,995.18
2019-03-15T07:06:16.357Z,995.26
2019-03-15T07:06:56.923Z,995.26
2019-03-15T07:07:37.506Z,995.26
2019-03-15T07:08:18.065Z,995.3
2019-03-15T07:08:58.631Z,995.19
2019-03-15T07:09:39.195Z,995.28
2019-03-15T07:10:19.919Z,995.25
2019-03-15T07:11:00.486Z,995.29
2019-03-15T07:11:41.050Z,995.24
2019-03-15T07:12:22.879Z,995.32
2019-03-15T07:13:03.322Z,995.26
2019-03-15T07:13:43.903Z,995.26
2019-03-15T07:14:24.529Z,995.26
2019-03-15T07:15:05.452Z,995.2
2019-03-15T07:15:46.219Z,995.34
2019-03-15T07:16:27.132Z,995.3
2019-03-15T07:17:09.002Z,995.31
2019-03-15T07:17:49.593Z,995.36
2019-03-15T07:18:30.252Z,995.34
2019-03-15T07:19:11.058Z,995.31
2019-03-15T07:19:51.622Z,995.3
2019-03-15T07:20:32.197Z,995.35
2019-03-15T07:21:13.728Z,995.34
2019-03-15T07:21:53.399Z,995.33
2019-03-15T07:22:34.074Z,995.29
2019-03-15T07:23:14.726Z,995.28
2019-03-15T07:23:57.760Z,995.34
2019-03-15T07:24:35.969Z,995.34
2019-03-15T07:25:16.568Z,995.34
2019-03-15T07:25:57.134Z,995.29
2019-03-15T07:26:38.122Z,995.36
2019-03-15T07:27:18.718Z,995.24
2019-03-15T07:27:59.278Z,995.29
2019-03-15T07:28:39.835Z,995.31
2019-03-15T07:29:20.408Z,995.35
2019-03-15T07:30:01.177Z,995.34
2019-03-15T07:30:42.084Z,995.31
2019-03-15T07:31:23.014Z,995.29
2019-03-15T07:32:03.847Z,995.3
2019-03-15T07:32:44.624Z,995.27
2019-03-15T07:33:25.438Z,995.3
2019-03-15T07:34:06.357Z,995.27
2019-03-15T07:34:47.638Z,995.28
2019-03-15T07:35:28.792Z,995.34
2019-03-15T07:36:09.497Z,995.31
2019-03-15T07:36:51.591Z,995.33
2019-03-15T07:37:31.277Z,995.37
2019-03-15T07:38:11.853Z,995.44
2019-03-15T07:38:52.452Z,995.39
2019-03-15T07:39:33.165Z,995.42
2019-03-15T07:40:13.987Z,995.32
2019-03-15T07:40:54.789Z,995.4
2019-03-15T07:41:35.525Z,995.43
2019-03-15T07:42:16.384Z,995.42
2019-03-15T07:42:59.852Z,995.43
2019-03-15T07:43:37.986Z,995.41
2019-03-15T07:44:18.678Z,995.44
2019-03-15T07:44:59.350Z,995.44
2019-03-15T07:45:39.991Z,995.47
2019-03-15T07:46:20.632Z,995.53
2019-03-15T07:47:01.371Z,995.51
2019-03-15T07:47:41.964Z,995.61
2019-03-15T07:48:23.218Z,995.55
2019-03-15T07:49:03.231Z,995.53
2019-03-15T07:49:45.493Z,995.58
2019-03-15T07:50:27.139Z,995.6
2019-03-15T07:51:06.774Z,995.52
2019-03-15T07:51:47.344Z,995.49
2019-03-15T07:52:27.886Z,995.56
2019-03-15T07:53:08.614Z,995.48
2019-03-15T07:53:49.251Z,995.52
2019-03-15T07:54:37.667Z,995.56
2019-03-15T07:55:10.500Z,995.56
2019-03-15T07:55:51.123Z,995.6
2019-03-15T07:56:31.809Z,995.67
2019-03-15T07:57:12.408Z,995.57
2019-03-15T07:57:52.970Z,995.55
2019-03-15T07:58:33.661Z,995.51
2019-03-15T07:59:14.117Z,995.53
2019-03-15T07:59:54.675Z,995.54
2019-03-15T08:00:35.259Z,995.52
2019-03-15T08:01:15.791Z,995.62
2019-03-15T08:01:56.481Z,995.62
2019-03-15T08:02:37.053Z,995.57
2019-03-15T08:03:17.611Z,995.59
2019-03-15T08:03:58.168Z,995.58
2019-03-15T08:04:38.735Z,995.67
2019-03-15T08:05:19.322Z,995.66
2019-03-15T08:05:59.890Z,995.65
2019-03-15T08:06:40.455Z,995.69
2019-03-15T08:07:21.022Z,995.63
2019-03-15T08:08:01.581Z,995.69
2019-03-15T08:08:42.335Z,995.71
2019-03-15T08:09:22.765Z,995.67
2019-03-15T08:10:03.351Z,995.75
2019-03-15T08:10:43.929Z,995.7
2019-03-15T08:11:24.561Z,995.78
2019-03-15T08:12:05.107Z,995.68
2019-03-15T08:12:49.067Z,995.76
2019-03-15T08:13:26.302Z,995.75
2019-03-15T08:14:06.873Z,995.83
2019-03-15T08:14:47.503Z,995.81
2019-03-15T08:15:28.109Z,995.71
2019-03-15T08:16:08.671Z,995.88
2019-03-15T08:16:49.240Z,995.88
2019-03-15T08:17:29.797Z,995.83
2019-03-15T08:18:10.353Z,995.86
2019-03-15T08:18:50.924Z,995.83
2019-03-15T08:19:31.677Z,995.8
2019-03-15T08:20:12.228Z,995.83
2019-03-15T08:20:52.909Z,995.82
2019-03-15T08:21:33.441Z,995.83
2019-03-15T08:22:14.037Z,995.77
2019-03-15T08:22:54.672Z,995.85
2019-03-15T08:23:35.258Z,995.76
2019-03-15T08:24:15.816Z,995.82
2019-03-15T08:24:56.495Z,995.88
2019-03-15T08:25:37.023Z,995.87
2019-03-15T08:26:17.559Z,995.85
2019-03-15T08:26:58.142Z,995.87
2019-03-15T08:27:38.737Z,995.75
2019-03-15T08:28:19.288Z,995.8